Time;durP1;ratioP1;P1;durP2;ratioP2;P2;SDS_P1;SDS_P2;PMS_P1;PMS_P2;Temp;Humidity;BMP_temperature;BMP_pressure;BME280_temperature;BME280_humidity;BME280_pressure;Samples;Min_cycle;Max_cycle;Signal;HPM_P1;HPM_P2
2022/09/08 00:00:42;;;;;;;1.70;1.30;;;;;;;17.67;100.00;98382.94;5109786;28;20807;-82
2022/09/08 00:03:12;;;;;;;3.03;1.50;;;;;;;17.61;100.00;98373.75;5109819;28;20566;-82
2022/09/08 00:05:47;;;;;;;3.97;1.38;;;;;;;17.59;100.00;98370.44;5110838;28;20059;-82
2022/09/08 00:08:17;;;;;;;3.78;1.45;;;;;;;17.44;100.00;98371.00;5111001;28;20050;-82
2022/09/08 00:10:43;;;;;;;5.03;1.42;;;;;;;17.37;100.00;98359.34;5110866;28;20089;-82
2022/09/08 00:13:11;;;;;;;2.55;1.45;;;;;;;17.68;100.00;98387.34;5110265;28;20051;-82
2022/09/08 00:15:38;;;;;;;1.30;1.20;;;;;;;17.63;100.00;98379.00;5109759;28;20056;-83
2022/09/08 00:18:06;;;;;;;3.05;1.75;;;;;;;17.57;100.00;98380.84;5110959;28;20051;-82
2022/09/08 00:20:33;;;;;;;2.40;1.40;;;;;;;17.62;100.00;98389.19;5110638;28;20044;-83
2022/09/08 00:23:00;;;;;;;3.65;1.63;;;;;;;17.64;100.00;98387.03;5109933;28;20127;-82
2022/09/08 00:25:28;;;;;;;3.05;1.58;;;;;;;17.78;100.00;98389.41;5110120;28;20122;-82
2022/09/08 00:27:54;;;;;;;1.45;1.15;;;;;;;17.65;100.00;98372.19;5110692;28;20058;-82
2022/09/08 00:30:21;;;;;;;4.70;1.58;;;;;;;17.65;100.00;98374.09;5109741;28;20046;-82
2022/09/08 00:32:47;;;;;;;4.53;1.60;;;;;;;17.47;100.00;98351.28;5109992;28;20400;-82
2022/09/08 00:35:18;;;;;;;1.50;1.30;;;;;;;17.54;100.00;98364.03;5110430;28;20355;-82
2022/09/08 00:37:45;;;;;;;6.30;1.35;;;;;;;17.62;100.00;98377.34;5110505;28;20055;-83
2022/09/08 00:40:12;;;;;;;4.72;1.80;;;;;;;17.42;100.00;98378.69;5110265;28;20040;-82
2022/09/08 00:42:40;;;;;;;2.40;1.58;;;;;;;17.49;100.00;98387.59;5108633;28;20047;-82
2022/09/08 00:45:07;;;;;;;2.85;1.63;;;;;;;17.51;100.00;98376.38;5107002;28;20491;-82
2022/09/08 00:47:39;;;;;;;3.38;1.70;;;;;;;17.29;100.00;98368.84;5110138;28;20047;-82
2022/09/08 00:50:08;;;;;;;4.40;1.65;;;;;;;17.38;100.00;98365.69;5110464;28;20498;-82
2022/09/08 00:52:41;;;;;;;3.97;1.38;;;;;;;17.38;100.00;98362.94;5109373;28;20523;-82
2022/09/08 00:55:09;;;;;;;2.50;1.70;;;;;;;17.49;100.00;98371.13;5110590;28;20044;-82
2022/09/08 00:57:40;;;;;;;4.85;1.83;;;;;;;17.43;100.00;98374.88;5109997;28;20047;-82
2022/09/08 01:00:14;;;;;;;6.70;1.75;;;;;;;17.49;100.00;98384.00;5109256;28;20043;-82
2022/09/08 01:02:42;;;;;;;2.30;1.48;;;;;;;17.39;100.00;98373.69;5113593;28;20121;-82
2022/09/08 01:05:12;;;;;;;5.30;1.60;;;;;;;17.41;100.00;98389.94;5114745;28;20048;-82
2022/09/08 01:13:35;;;;;;;4.90;2.13;;;;;;;17.48;100.00;98398.84;5108105;28;20055;-82
2022/09/08 01:16:02;;;;;;;3.08;1.80;;;;;;;17.54;100.00;98410.72;5114243;28;20078;-81
2022/09/08 01:18:28;;;;;;;4.13;1.65;;;;;;;17.35;100.00;98413.72;5114070;28;20051;-81
2022/09/08 01:21:04;;;;;;;2.35;1.90;;;;;;;17.34;100.00;98428.53;5112504;28;20050;-81
2022/09/08 01:23:52;;;;;;;3.78;1.80;;;;;;;17.34;100.00;98417.53;5113193;28;20071;-81
2022/09/08 01:26:35;;;;;;;3.67;1.90;;;;;;;17.44;100.00;98422.41;5106525;28;20054;-81
2022/09/08 01:29:06;;;;;;;5.65;1.60;;;;;;;17.46;100.00;98422.97;5113618;28;20508;-81
2022/09/08 01:31:34;;;;;;;5.00;1.80;;;;;;;17.55;100.00;98421.47;5113942;27;20047;-80
2022/09/08 01:34:02;;;;;;;6.82;2.42;;;;;;;17.55;100.00;98410.47;5113122;28;20047;-81
2022/09/08 01:36:29;;;;;;;4.15;2.13;;;;;;;17.64;100.00;98411.75;5112924;28;20051;-81
2022/09/08 01:38:55;;;;;;;5.10;1.95;;;;;;;17.60;100.00;98401.50;5111164;28;20051;-81
2022/09/08 01:41:22;;;;;;;3.40;1.90;;;;;;;17.43;100.00;98377.63;5114330;28;20085;-81
2022/09/08 01:43:48;;;;;;;3.05;2.08;;;;;;;17.39;100.00;98397.56;5110792;28;20055;-81
2022/09/08 01:46:16;;;;;;;3.53;2.20;;;;;;;17.29;100.00;98396.31;5108318;28;20043;-80
2022/09/08 01:48:43;;;;;;;2.22;1.90;;;;;;;17.32;100.00;98412.28;5113541;28;20043;-80
2022/09/08 01:51:10;;;;;;;3.35;2.13;;;;;;;17.42;100.00;98397.06;5113402;28;20051;-80
2022/09/08 01:53:37;;;;;;;6.63;2.75;;;;;;;17.39;100.00;98387.44;5112720;28;20055;-80
2022/09/08 01:56:04;;;;;;;4.97;2.13;;;;;;;17.33;100.00;98389.25;5113713;28;20044;-80
2022/09/08 01:58:31;;;;;;;5.25;2.25;;;;;;;17.41;100.00;98401.75;5112327;28;20105;-80
2022/09/08 02:00:57;;;;;;;3.47;2.75;;;;;;;17.21;100.00;98385.75;5113228;28;20392;-80
2022/09/08 02:03:25;;;;;;;2.35;2.15;;;;;;;17.38;100.00;98390.44;5112774;28;20507;-80
2022/09/08 02:05:52;;;;;;;5.68;2.35;;;;;;;17.49;100.00;98387.59;5112995;28;20051;-80
2022/09/08 02:08:19;;;;;;;2.95;2.28;;;;;;;17.41;100.00;98359.69;5113019;28;20052;-80
2022/09/08 02:10:53;;;;;;;5.63;2.42;;;;;;;17.34;100.00;98363.44;5112383;28;20275;-80
2022/09/08 02:13:19;;;;;;;7.05;2.90;;;;;;;17.15;100.00;98364.75;5111215;28;20138;-80
2022/09/08 02:15:46;;;;;;;4.57;2.83;;;;;;;17.08;100.00;98350.34;5113099;28;20471;-80
2022/09/08 02:18:12;;;;;;;4.90;2.40;;;;;;;17.14;100.00;98352.09;5111514;28;20050;-80
2022/09/08 02:20:40;;;;;;;4.25;2.20;;;;;;;17.11;100.00;98339.69;5113043;28;20052;-80
2022/09/08 02:23:07;;;;;;;4.93;2.22;;;;;;;17.12;100.00;98343.28;5112056;28;20054;-80
2022/09/08 02:25:33;;;;;;;7.82;2.47;;;;;;;17.12;100.00;98335.03;5111802;28;20052;-80
2022/09/08 02:27:59;;;;;;;3.40;2.40;;;;;;;17.06;100.00;98341.53;5113007;28;20040;-80
2022/09/08 02:30:26;;;;;;;5.22;2.55;;;;;;;17.07;100.00;98340.44;5112412;28;20445;-80
2022/09/08 02:32:52;;;;;;;7.25;2.70;;;;;;;17.00;100.00;98321.38;5112404;28;20055;-80
2022/09/08 02:35:19;;;;;;;5.75;2.70;;;;;;;17.06;100.00;98334.13;5112359;28;20058;-80
2022/09/08 02:37:47;;;;;;;3.92;2.78;;;;;;;17.02;100.00;98327.44;5112758;28;20113;-81
2022/09/08 02:40:13;;;;;;;3.80;2.85;;;;;;;17.16;100.00;98337.03;5111446;28;20047;-81
2022/09/08 02:42:40;;;;;;;4.63;2.42;;;;;;;17.06;100.00;98328.63;5111716;28;20058;-80
2022/09/08 02:45:08;;;;;;;6.00;3.17;;;;;;;17.09;100.00;98327.31;5112598;28;20039;-80
2022/09/08 02:47:35;;;;;;;4.50;2.95;;;;;;;17.12;100.00;98324.88;5104531;28;20047;-81
2022/09/08 02:50:02;;;;;;;15.88;4.25;;;;;;;17.04;100.00;98317.06;5112230;28;20059;-80
2022/09/08 02:52:31;;;;;;;5.45;3.47;;;;;;;17.05;100.00;98309.66;5111472;28;20532;-80
2022/09/08 02:54:58;;;;;;;5.97;3.17;;;;;;;17.16;100.00;98322.47;5111497;28;20130;-80
2022/09/08 02:57:25;;;;;;;6.32;3.17;;;;;;;17.11;100.00;98309.47;5112350;28;20067;-80
2022/09/08 02:59:51;;;;;;;5.20;3.83;;;;;;;17.15;100.00;98326.31;5112153;28;20179;-80
2022/09/08 03:02:18;;;;;;;7.05;4.30;;;;;;;17.05;100.00;98313.22;5111557;28;20100;-80
2022/09/08 03:04:45;;;;;;;7.72;4.00;;;;;;;17.12;100.00;98319.38;5112027;28;20054;-80
2022/09/08 03:07:11;;;;;;;5.43;3.90;;;;;;;17.14;100.00;98321.88;5111317;28;20043;-80
2022/09/08 03:09:38;;;;;;;6.07;4.20;;;;;;;17.20;100.00;98325.56;5111560;28;20037;-80
2022/09/08 03:12:07;;;;;;;7.22;3.65;;;;;;;17.10;100.00;98316.06;5111471;28;20051;-80
2022/09/08 03:14:34;;;;;;;6.63;3.23;;;;;;;17.18;100.00;98314.81;5111876;28;20043;-80
2022/09/08 03:17:00;;;;;;;6.95;3.28;;;;;;;17.22;100.00;98328.88;5110632;28;20109;-80
2022/09/08 03:19:27;;;;;;;3.72;3.00;;;;;;;17.18;100.00;98314.81;5111780;28;20043;-80
2022/09/08 03:21:54;;;;;;;5.63;2.83;;;;;;;17.20;100.00;98315.41;5110967;28;20055;-80
2022/09/08 03:24:21;;;;;;;8.48;2.95;;;;;;;17.20;100.00;98315.41;5110698;28;20403;-80
2022/09/08 03:26:47;;;;;;;3.95;2.58;;;;;;;17.20;100.00;98320.06;5111539;28;20450;-80
2022/09/08 03:29:15;;;;;;;4.65;2.67;;;;;;;17.20;100.00;98315.41;5111830;28;20055;-81
2022/09/08 03:31:41;;;;;;;3.65;2.67;;;;;;;17.27;100.00;98331.72;5111301;28;20476;-80
2022/09/08 03:34:08;;;;;;;3.25;2.20;;;;;;;17.39;100.00;98337.13;5111026;28;20040;-81
2022/09/08 03:36:34;;;;;;;5.60;2.08;;;;;;;17.37;100.00;98340.13;5110162;28;20047;-80
2022/09/08 03:39:01;;;;;;;5.18;2.22;;;;;;;17.38;100.00;98336.31;5111702;28;20093;-80
2022/09/08 03:41:28;;;;;;;4.43;1.92;;;;;;;17.27;100.00;98329.81;5111513;28;20084;-80
2022/09/08 03:43:54;;;;;;;3.75;2.00;;;;;;;17.39;100.00;98339.88;5111001;28;20054;-80
2022/09/08 03:46:22;;;;;;;10.02;2.00;;;;;;;17.30;100.00;98333.97;5111470;28;20051;-80
2022/09/08 03:48:49;;;;;;;5.13;2.05;;;;;;;17.38;100.00;98340.97;5111039;28;20062;-80
2022/09/08 03:51:22;;;;;;;3.60;1.73;;;;;;;17.32;100.00;98332.63;5110442;28;20530;-81
2022/09/08 03:53:48;;;;;;;2.92;1.90;;;;;;;17.31;100.00;98336.47;5110093;28;20054;-80
2022/09/08 03:56:15;;;;;;;4.70;1.83;;;;;;;17.21;100.00;98314.31;5111343;28;20050;-81
2022/09/08 03:58:42;;;;;;;2.03;1.63;;;;;;;17.39;100.00;98331.63;5110840;28;20050;-81
2022/09/08 04:01:10;;;;;;;3.35;1.70;;;;;;;17.42;100.00;98331.97;5111078;28;20055;-81
2022/09/08 04:03:38;;;;;;;2.88;1.58;;;;;;;17.41;100.00;98340.47;5109019;28;20051;-80
2022/09/08 04:06:05;;;;;;;2.47;1.55;;;;;;;17.39;100.00;98337.13;5103932;28;20051;-80
2022/09/08 04:08:32;;;;;;;1.38;1.20;;;;;;;17.34;100.00;98337.88;5111279;28;20105;-81
2022/09/08 04:10:59;;;;;;;2.97;1.50;;;;;;;17.28;100.00;98322.38;5110600;28;20058;-81
2022/09/08 04:13:26;;;;;;;2.80;1.50;;;;;;;17.31;100.00;98341.13;5110233;28;20048;-80
2022/09/08 04:15:53;;;;;;;2.55;1.35;;;;;;;17.32;100.00;98348.28;5110535;28;20534;-80
2022/09/08 04:18:20;;;;;;;3.10;1.15;;;;;;;17.26;100.00;98338.31;5108399;28;20048;-80
2022/09/08 04:20:56;;;;;;;2.17;1.40;;;;;;;17.29;100.00;98341.38;5110575;28;20061;-81
2022/09/08 04:23:22;;;;;;;2.38;1.20;;;;;;;17.25;100.00;98331.13;5110473;28;20403;-80
2022/09/08 04:25:55;;;;;;;2.63;1.17;;;;;;;17.20;100.00;98331.06;5110177;28;20051;-81
2022/09/08 04:28:22;;;;;;;3.08;1.30;;;;;;;17.28;100.00;98342.47;5110803;28;20123;-81
2022/09/08 04:30:48;;;;;;;3.83;1.10;;;;;;;17.00;100.00;98313.16;5110052;28;20055;-81
2022/09/08 04:33:15;;;;;;;1.45;0.95;;;;;;;17.16;100.00;98336.19;5109209;28;20069;-81
2022/09/08 04:35:41;;;;;;;3.67;1.13;;;;;;;16.97;100.00;98333.69;5109936;28;20050;-81
2022/09/08 04:38:09;;;;;;;4.22;1.20;;;;;;;16.92;100.00;98322.63;5110822;28;20055;-81
2022/09/08 04:40:36;;;;;;;5.32;1.08;;;;;;;17.12;100.00;98340.53;5110556;28;20044;-81
2022/09/08 04:43:03;;;;;;;0.70;0.70;;;;;;;17.05;100.00;98329.69;5109827;28;20067;-80
2022/09/08 04:45:29;;;;;;;3.10;1.45;;;;;;;17.04;100.00;98344.53;5110631;28;20104;-80
2022/09/08 04:47:56;;;;;;;2.58;1.08;;;;;;;17.07;100.00;98343.19;5109180;28;20498;-80
2022/09/08 04:50:22;;;;;;;1.63;0.95;;;;;;;17.05;100.00;98346.16;5110043;28;20044;-79
2022/09/08 04:52:49;;;;;;;3.22;1.10;;;;;;;16.97;100.00;98344.66;5109655;28;20051;-80
2022/09/08 04:55:17;;;;;;;4.60;1.20;;;;;;;17.12;100.00;98352.34;5110191;28;20062;-80
2022/09/08 04:57:43;;;;;;;2.00;1.05;;;;;;;16.98;100.00;98350.97;5110180;28;20054;-80
2022/09/08 05:00:12;;;;;;;3.97;2.95;;;;;;;17.01;100.00;98363.38;5109256;28;20507;-79
2022/09/08 05:02:39;;;;;;;3.67;1.27;;;;;;;16.90;100.00;98337.66;5109262;28;20043;-79
2022/09/08 05:05:06;;;;;;;1.70;0.98;;;;;;;16.98;100.00;98360.06;5110399;28;20039;-79
2022/09/08 05:07:33;;;;;;;1.55;1.10;;;;;;;16.89;100.00;98355.19;5109966;28;20059;-79
2022/09/08 05:10:00;;;;;;;1.15;0.93;;;;;;;16.88;100.00;98357.13;5110099;28;20050;-79
2022/09/08 05:12:28;;;;;;;1.63;0.90;;;;;;;16.88;100.00;98351.63;5109002;28;20046;-80
2022/09/08 05:14:55;;;;;;;1.67;0.80;;;;;;;16.81;100.00;98356.41;5109257;28;20044;-80
2022/09/08 05:17:21;;;;;;;1.52;0.90;;;;;;;16.78;100.00;98357.72;5108844;28;20049;-79
2022/09/08 05:19:49;;;;;;;0.95;0.80;;;;;;;16.76;100.00;98361.81;5109958;28;20147;-80
2022/09/08 05:22:16;;;;;;;4.15;1.08;;;;;;;16.81;100.00;98370.94;5109621;28;20048;-79
2022/09/08 05:24:42;;;;;;;2.55;1.10;;;;;;;16.83;100.00;98362.50;5109547;28;20510;-80
2022/09/08 05:27:09;;;;;;;7.03;1.30;;;;;;;16.78;100.00;98365.94;5110114;28;20047;-79
2022/09/08 05:29:37;;;;;;;3.00;0.90;;;;;;;16.83;100.00;98381.72;5109094;28;20063;-80
2022/09/08 05:32:03;;;;;;;1.88;0.90;;;;;;;16.77;100.00;98375.28;5109748;28;20055;-79
2022/09/08 05:34:30;;;;;;;0.85;0.82;;;;;;;16.73;100.00;98373.28;5110058;28;20487;-79
2022/09/08 05:36:56;;;;;;;2.15;0.88;;;;;;;16.68;100.00;98385.00;5109784;28;20048;-79
2022/09/08 05:39:23;;;;;;;4.75;1.15;;;;;;;16.69;100.00;98386.63;5110231;28;20127;-80
2022/09/08 05:41:49;;;;;;;8.93;1.27;;;;;;;16.64;100.00;98392.84;5109614;28;20443;-79
2022/09/08 05:44:16;;;;;;;6.65;1.00;;;;;;;16.72;100.00;98405.34;5108637;28;20048;-79
2022/09/08 05:46:44;;;;;;;1.75;0.85;;;;;;;16.66;100.00;98425.53;5109827;28;20062;-79
2022/09/08 05:49:10;;;;;;;2.67;0.90;;;;;;;16.61;100.00;98428.19;5112805;28;20055;-79
2022/09/08 05:51:37;;;;;;;2.80;1.38;;;;;;;16.50;100.00;98424.41;5113750;28;20105;-79
2022/09/08 05:54:04;;;;;;;2.05;1.17;;;;;;;16.47;100.00;98435.84;5112793;28;20054;-79
2022/09/08 05:56:31;;;;;;;1.45;1.00;;;;;;;16.57;100.00;98435.22;5112562;28;20406;-79
2022/09/08 05:58:58;;;;;;;1.75;0.90;;;;;;;16.53;100.00;98443.13;5113094;28;20040;-79
2022/09/08 06:01:26;;;;;;;1.00;0.90;;;;;;;16.46;100.00;98435.00;5113294;28;20039;-79
2022/09/08 06:03:55;;;;;;;1.40;0.70;;;;;;;16.31;100.00;98431.09;5112701;28;20128;-79
2022/09/08 06:06:21;;;;;;;5.32;0.80;;;;;;;16.40;100.00;98451.59;5113473;28;20123;-78
2022/09/08 06:08:48;;;;;;;2.55;0.77;;;;;;;16.48;100.00;98459.44;5113161;28;20055;-79
2022/09/08 06:11:15;;;;;;;0.60;0.50;;;;;;;16.49;100.00;98472.09;5112307;28;20483;-79
2022/09/08 06:13:41;;;;;;;0.80;0.70;;;;;;;16.62;100.00;98466.38;5110187;28;20051;-78
2022/09/08 06:16:10;;;;;;;1.08;0.60;;;;;;;16.66;100.00;98485.91;5113360;28;20049;-78
2022/09/08 06:18:38;;;;;;;2.55;0.88;;;;;;;16.60;100.00;98479.47;5111672;28;20047;-79
2022/09/08 06:21:09;;;;;;;1.25;0.57;;;;;;;16.62;100.00;98485.56;5113125;28;20047;-79
2022/09/08 06:23:35;;;;;;;1.45;0.32;;;;;;;16.52;100.00;98482.59;5112146;28;20055;-79
2022/09/08 06:26:28;;;;;;;2.00;0.38;;;;;;;16.40;100.00;98479.84;5112165;28;20047;-78
2022/09/08 06:29:04;;;;;;;0.93;0.40;;;;;;;16.43;100.00;98481.31;5112718;28;20062;-79
2022/09/08 06:31:35;;;;;;;1.00;0.47;;;;;;;16.39;100.00;98485.59;5112749;28;20131;-78
2022/09/08 06:34:10;;;;;;;0.80;0.60;;;;;;;16.46;100.00;98476.16;5104194;28;20490;-79
2022/09/08 06:36:46;;;;;;;2.03;0.63;;;;;;;16.30;100.00;98476.06;5112698;28;20506;-79
2022/09/08 06:39:19;;;;;;;1.88;0.50;;;;;;;16.44;100.00;98485.72;5105750;28;20059;-79
2022/09/08 06:41:50;;;;;;;1.45;0.60;;;;;;;16.52;100.00;98474.38;5111304;28;20047;-79
2022/09/08 06:44:21;;;;;;;2.08;0.52;;;;;;;16.23;100.00;98454.25;5112037;28;20222;-79
2022/09/08 06:46:48;;;;;;;2.75;0.43;;;;;;;16.39;100.00;98467.22;5111904;28;20130;-79
2022/09/08 06:49:14;;;;;;;0.40;0.40;;;;;;;16.37;100.00;98454.84;5112407;28;20055;-79
2022/09/08 06:51:49;;;;;;;1.02;0.50;;;;;;;16.33;100.00;98470.91;5112446;28;20108;-79
2022/09/08 06:54:35;;;;;;;1.30;0.50;;;;;;;16.35;100.00;98470.69;5110703;28;20043;-79
2022/09/08 06:57:13;;;;;;;1.15;0.60;;;;;;;16.45;100.00;98471.75;5112216;28;20047;-79
2022/09/08 06:59:50;;;;;;;0.38;0.38;;;;;;;16.36;100.00;98472.34;5112199;28;20059;-79
2022/09/08 07:02:36;;;;;;;0.40;0.30;;;;;;;16.35;100.00;98493.47;5110643;28;20059;-79
2022/09/08 07:05:10;;;;;;;0.20;0.20;;;;;;;16.38;100.00;98475.69;5112195;28;20052;-79
2022/09/08 07:07:44;;;;;;;0.80;0.50;;;;;;;16.40;100.00;98471.63;5104438;28;20059;-79
2022/09/08 07:10:19;;;;;;;0.38;0.35;;;;;;;16.36;100.00;98455.91;5108695;28;20043;-79
2022/09/08 07:12:55;;;;;;;0.30;0.30;;;;;;;16.47;100.00;98485.25;5110205;28;20054;-80
2022/09/08 07:15:29;;;;;;;2.30;0.50;;;;;;;16.62;100.00;98496.56;5112015;28;20047;-80
2022/09/08 07:18:04;;;;;;;3.58;0.32;;;;;;;16.66;100.00;98505.13;5110971;28;20055;-80
2022/09/08 07:20:31;;;;;;;0.38;0.38;;;;;;;16.71;100.00;98497.03;5111670;28;20044;-80
2022/09/08 07:23:05;;;;;;;1.05;0.50;;;;;;;16.61;100.00;98483.06;5110297;28;20403;-80
2022/09/08 07:25:36;;;;;;;2.42;0.40;;;;;;;16.67;100.00;98501.31;5111741;28;20086;-80
2022/09/08 07:28:06;;;;;;;1.35;0.50;;;;;;;16.80;100.00;98492.81;5111881;28;20491;-80
2022/09/08 07:30:35;;;;;;;2.05;0.40;;;;;;;16.90;100.00;98492.22;5111225;28;20061;-80
2022/09/08 07:33:11;;;;;;;1.90;0.50;;;;;;;16.92;100.00;98497.47;5107481;28;20491;-79
2022/09/08 07:35:48;;;;;;;0.93;0.50;;;;;;;16.98;100.00;98496.50;5111387;28;20063;-79
2022/09/08 07:38:26;;;;;;;0.32;0.30;;;;;;;17.11;100.00;98509.94;5110673;28;20095;-79
2022/09/08 07:40:56;;;;;;;1.58;0.50;;;;;;;17.20;100.00;98482.94;5111249;28;20052;-79
2022/09/08 07:43:24;;;;;;;0.50;0.50;;;;;;;17.32;100.00;98507.63;5091986;28;20420;-79
2022/09/08 07:46:02;;;;;;;1.75;0.60;;;;;;;17.12;100.00;98497.06;5109868;28;20047;-79
2022/09/08 07:48:34;;;;;;;3.83;0.55;;;;;;;17.34;100.00;98508.19;5111211;28;20588;-79
2022/09/08 07:51:11;;;;;;;0.82;0.30;;;;;;;17.34;100.00;98517.28;5111432;28;20054;-80
2022/09/08 07:53:51;;;;;;;0.63;0.40;;;;;;;17.47;100.00;98518.91;5110477;28;20052;-79
2022/09/08 07:56:24;;;;;;;3.70;0.68;;;;;;;17.44;100.00;98519.38;5111497;28;20136;-79
2022/09/08 07:59:06;;;;;;;1.02;0.52;;;;;;;17.35;99.77;98526.34;5111103;28;20051;-80
2022/09/08 08:01:39;;;;;;;0.73;0.50;;;;;;;17.26;100.00;98522.34;5107627;28;20048;-80
2022/09/08 08:04:25;;;;;;;0.38;0.38;;;;;;;17.45;99.52;98533.97;5110317;28;20071;-79
2022/09/08 08:06:55;;;;;;;4.47;0.60;;;;;;;17.46;100.00;98528.22;5111119;28;20252;-81
2022/09/08 08:09:33;;;;;;;0.90;0.40;;;;;;;17.62;100.00;98534.84;5109902;28;20039;-81
2022/09/08 08:12:09;;;;;;;5.43;0.50;;;;;;;17.74;100.00;98533.97;5109935;28;20487;-81
2022/09/08 08:14:44;;;;;;;0.90;0.40;;;;;;;17.86;100.00;98541.03;5110784;28;20422;-81
2022/09/08 08:17:35;;;;;;;0.60;0.60;;;;;;;17.99;94.55;98550.94;5109914;28;20054;-83
2022/09/08 08:20:24;;;;;;;1.73;0.47;;;;;;;18.18;89.43;98539.69;5105126;28;20043;-81
2022/09/08 08:23:17;;;;;;;2.53;0.52;;;;;;;18.47;90.92;98543.19;5100768;28;20047;-81
2022/09/08 08:25:54;;;;;;;1.63;0.65;;;;;;;18.60;89.29;98553.00;5109773;28;20133;-82
2022/09/08 08:28:23;;;;;;;2.47;0.45;;;;;;;18.64;86.49;98556.06;5108321;28;20044;-82
2022/09/08 08:31:02;;;;;;;0.90;0.57;;;;;;;18.43;83.98;98564.03;5111178;28;20062;-82
2022/09/08 08:33:33;;;;;;;0.90;0.50;;;;;;;18.34;86.62;98571.88;5110460;28;20048;-83
2022/09/08 08:36:04;;;;;;;0.70;0.50;;;;;;;18.30;87.61;98559.69;5111310;28;20051;-83
2022/09/08 08:38:34;;;;;;;0.57;0.40;;;;;;;18.49;86.01;98556.72;5110464;28;20043;-82
2022/09/08 08:41:07;;;;;;;1.52;0.50;;;;;;;18.84;85.33;98561.06;5109711;28;20051;-82
2022/09/08 08:44:04;;;;;;;0.50;0.50;;;;;;;18.95;83.19;98568.41;5108333;28;20264;-82
2022/09/08 08:46:49;;;;;;;1.38;0.45;;;;;;;18.90;82.70;98576.59;5103970;28;20506;-82
2022/09/08 08:49:59;;;;;;;0.80;0.50;;;;;;;18.45;84.12;98574.78;5110189;28;20052;-82
2022/09/08 08:52:42;;;;;;;2.38;0.40;;;;;;;18.40;85.36;98568.13;5095774;28;20039;-82
2022/09/08 08:55:35;;;;;;;4.07;0.50;;;;;;;18.80;84.69;98570.91;5108694;28;20324;-82
2022/09/08 08:58:20;;;;;;;1.50;0.52;;;;;;;18.73;83.63;98566.41;5107299;28;20046;-83
2022/09/08 09:00:57;;;;;;;0.50;0.50;;;;;;;18.67;82.18;98570.19;5109494;28;20415;-82
2022/09/08 09:04:04;;;;;;;1.40;0.50;;;;;;;19.33;82.83;98574.13;5109446;28;20675;-83
2022/09/08 09:06:44;;;;;;;1.77;0.32;;;;;;;19.42;77.86;98580.84;5039349;28;20049;-83
2022/09/08 09:09:55;;;;;;;3.15;0.50;;;;;;;19.25;76.15;98578.16;5105879;27;20056;-83
2022/09/08 09:12:43;;;;;;;2.38;0.40;;;;;;;19.23;76.58;98581.19;5087748;28;20052;-84
2022/09/08 09:15:27;;;;;;;0.43;0.40;;;;;;;19.30;77.29;98583.75;5110516;28;20047;-82
2022/09/08 09:18:10;;;;;;;1.23;1.13;;;;;;;19.37;79.00;98583.56;5109774;28;20141;-83
2022/09/08 09:20:46;;;;;;;3.45;0.63;;;;;;;19.58;76.21;98602.00;5102293;28;20050;-83
2022/09/08 09:23:22;;;;;;;1.10;0.50;;;;;;;19.78;74.99;98581.28;5111515;28;20104;-85
2022/09/08 09:25:58;;;;;;;0.40;0.20;;;;;;;19.94;74.21;98572.09;5113986;28;20047;-82
2022/09/08 09:28:52;;;;;;;0.90;0.57;;;;;;;20.07;74.97;98592.09;5114264;28;20044;-83
2022/09/08 09:31:47;;;;;;;2.75;0.38;;;;;;;19.98;72.50;98608.28;5114259;28;20403;-82
2022/09/08 09:34:51;;;;;;;0.20;0.20;;;;;;;19.70;75.01;98592.75;5112209;28;20075;-83
2022/09/08 09:37:53;;;;;;;0.98;0.20;;;;;;;19.90;74.19;98606.81;5108824;28;20054;-83
2022/09/08 09:40:36;;;;;;;0.52;0.40;;;;;;;19.91;74.05;98594.66;5104492;28;20048;-83
2022/09/08 09:43:17;;;;;;;3.42;0.55;;;;;;;19.84;72.91;98584.94;5113490;28;20086;-83
2022/09/08 09:45:59;;;;;;;1.33;0.30;;;;;;;19.96;72.14;98599.41;5114008;28;20430;-84
2022/09/08 09:49:07;;;;;;;1.42;0.47;;;;;;;19.89;71.27;98582.25;5107072;28;20040;-84
2022/09/08 09:51:48;;;;;;;1.02;0.45;;;;;;;19.55;72.22;98580.47;5108882;28;20058;-84
2022/09/08 09:54:31;;;;;;;1.15;0.40;;;;;;;19.75;72.62;98599.19;5112963;28;20415;-83
2022/09/08 09:57:48;;;;;;;0.82;0.43;;;;;;;19.80;73.07;98595.69;5113699;28;20055;-82
2022/09/08 10:00:18;;;;;;;0.63;0.50;;;;;;;19.78;72.47;98600.59;5086432;28;20056;-82
2022/09/08 10:03:26;;;;;;;0.30;0.30;;;;;;;19.60;72.12;98594.31;5113057;28;20062;-82
2022/09/08 10:06:30;;;;;;;0.22;0.22;;;;;;;19.74;72.25;98596.69;5112277;28;20047;-83
2022/09/08 10:09:41;;;;;;;2.28;0.63;;;;;;;19.80;72.44;98590.97;5112234;28;20044;-84
2022/09/08 10:12:35;;;;;;;3.15;0.47;;;;;;;20.32;71.40;98588.72;5009555;28;20563;-84
2022/09/08 10:15:43;;;;;;;0.28;0.28;;;;;;;19.92;72.32;98587.25;5110045;28;20479;-82
2022/09/08 10:18:42;;;;;;;0.80;0.40;;;;;;;20.12;70.44;98576.41;5070578;27;20048;-83
2022/09/08 10:21:53;;;;;;;0.87;0.30;;;;;;;20.20;71.38;98577.84;5099115;28;20441;-84
2022/09/08 10:25:10;;;;;;;0.52;0.40;;;;;;;20.31;68.75;98559.47;5110617;28;20059;-83
2022/09/08 10:28:13;;;;;;;0.30;0.30;;;;;;;20.62;64.88;98562.44;5113137;28;20049;-84
2022/09/08 10:31:09;;;;;;;1.38;0.30;;;;;;;20.61;63.66;98566.28;5105283;28;20044;-83
2022/09/08 10:34:12;;;;;;;0.38;0.35;;;;;;;20.49;65.80;98578.38;5107936;28;20043;-83
2022/09/08 10:37:04;;;;;;;2.33;0.38;;;;;;;20.51;65.08;98559.59;5099007;28;20048;-82
2022/09/08 10:39:47;;;;;;;0.55;0.30;;;;;;;20.74;63.52;98576.91;5112981;28;20048;-83
2022/09/08 10:42:43;;;;;;;1.30;0.50;;;;;;;20.78;63.87;98571.72;5112215;28;20093;-83
2022/09/08 10:45:51;;;;;;;0.30;0.30;;;;;;;20.63;63.42;98561.34;5107971;28;20109;-83
2022/09/08 10:49:13;;;;;;;1.48;0.40;;;;;;;20.65;64.45;98568.28;5094340;28;20047;-82
2022/09/08 10:52:05;;;;;;;0.60;0.40;;;;;;;20.44;64.05;98553.47;5111351;28;20047;-84
2022/09/08 10:54:57;;;;;;;3.13;0.55;;;;;;;20.19;65.50;98586.38;5111030;28;20056;-83
2022/09/08 10:57:42;;;;;;;2.17;0.65;;;;;;;20.12;66.55;98581.91;5112755;28;20043;-84
2022/09/08 11:00:13;;;;;;;0.52;0.32;;;;;;;20.23;66.29;98584.78;5106317;28;20082;-84
2022/09/08 11:02:53;;;;;;;3.53;0.77;;;;;;;20.19;66.49;98584.47;5111931;27;20044;-83
2022/09/08 11:05:50;;;;;;;1.35;0.47;;;;;;;20.48;64.35;98590.50;5111693;28;20043;-84
2022/09/08 11:08:47;;;;;;;4.82;0.55;;;;;;;20.18;64.45;98590.25;5104554;28;21562;-83
2022/09/08 11:11:38;;;;;;;3.15;0.40;;;;;;;20.31;66.28;98595.34;5106549;28;20505;-85
2022/09/08 11:14:16;;;;;;;2.63;0.52;;;;;;;20.13;64.52;98575.31;5096635;28;20047;-84
2022/09/08 11:17:19;;;;;;;2.05;0.40;;;;;;;20.21;61.90;98585.03;5110994;27;20054;-85
2022/09/08 11:19:50;;;;;;;0.65;0.40;;;;;;;20.43;62.27;98578.59;5112143;28;20126;-84
2022/09/08 11:22:33;;;;;;;0.60;0.50;;;;;;;20.61;61.13;98563.53;5110520;28;20055;-84
2022/09/08 11:25:25;;;;;;;0.77;0.60;;;;;;;20.46;59.86;98570.63;5110621;28;20376;-82
2022/09/08 11:28:04;;;;;;;1.73;0.40;;;;;;;20.51;59.83;98562.38;5109050;28;20048;-84
2022/09/08 11:30:39;;;;;;;1.38;0.40;;;;;;;20.96;59.28;98570.44;5111777;28;20108;-84
2022/09/08 11:33:20;;;;;;;7.35;1.20;;;;;;;21.18;58.26;98548.16;5110660;28;20058;-83
2022/09/08 11:35:59;;;;;;;1.27;0.40;;;;;;;21.38;57.96;98572.31;5111747;28;20063;-84
2022/09/08 11:38:37;;;;;;;5.57;1.17;;;;;;;21.10;57.39;98568.03;5110779;28;20050;-83
2022/09/08 11:41:51;;;;;;;1.83;1.20;;;;;;;21.38;58.71;98578.66;5111774;28;20593;-83
2022/09/08 11:44:44;;;;;;;0.60;0.40;;;;;;;21.08;59.66;98564.69;5064315;28;20046;-84
2022/09/08 11:47:47;;;;;;;2.78;0.40;;;;;;;21.18;60.46;98567.50;5110778;28;20043;-83
2022/09/08 11:50:28;;;;;;;0.55;0.40;;;;;;;21.30;59.69;98554.31;5110359;28;20036;-84
2022/09/08 11:53:15;;;;;;;1.30;0.50;;;;;;;21.58;56.38;98570.75;5110757;28;20053;-84
2022/09/08 11:56:04;;;;;;;5.03;0.60;;;;;;;21.62;53.95;98558.00;5108955;28;20422;-83
2022/09/08 11:58:42;;;;;;;11.80;2.40;;;;;;;21.84;53.06;98568.88;5108299;28;20044;-83
2022/09/08 12:01:28;;;;;;;3.05;0.55;;;;;;;22.00;53.01;98569.75;5111075;28;20509;-84
2022/09/08 12:04:08;;;;;;;2.90;0.68;;;;;;;22.11;52.31;98560.31;5110672;28;20043;-84
2022/09/08 12:07:24;;;;;;;0.73;0.43;;;;;;;22.32;51.12;98549.31;5103472;28;20070;-84
2022/09/08 12:10:06;;;;;;;0.85;0.60;;;;;;;22.20;50.69;98555.91;5110180;28;20470;-84